sensor_id;sensor_type;location;lat;lon;timestamp;P1;durP1;ratioP1;P2;durP2;ratioP2
18748;SDS011;9503;53.560;10.246;2023-07-13T00:00:46;4.45;;;2.97;;
18748;SDS011;9503;53.560;10.246;2023-07-13T00:03:13;4.35;;;3.15;;
18748;SDS011;9503;53.560;10.246;2023-07-13T00:05:41;3.35;;;2.70;;
18748;SDS011;9503;53.560;10.246;2023-07-13T00:08:07;3.10;;;2.80;;
18748;SDS011;9503;53.560;10.246;2023-07-13T00:10:38;4.45;;;2.75;;
18748;SDS011;9503;53.560;10.246;2023-07-13T00:13:06;6.85;;;3.13;;
18748;SDS011;9503;53.560;10.246;2023-07-13T00:15:33;5.57;;;3.10;;
18748;SDS011;9503;53.560;10.246;2023-07-13T00:18:00;6.53;;;3.40;;
18748;SDS011;9503;53.560;10.246;2023-07-13T00:20:27;7.43;;;3.00;;
18748;SDS011;9503;53.560;10.246;2023-07-13T00:22:55;5.38;;;3.00;;
18748;SDS011;9503;53.560;10.246;2023-07-13T00:25:22;7.20;;;3.50;;
18748;SDS011;9503;53.560;10.246;2023-07-13T00:27:51;4.40;;;2.88;;
18748;SDS011;9503;53.560;10.246;2023-07-13T00:30:18;5.72;;;3.33;;
18748;SDS011;9503;53.560;10.246;2023-07-13T00:32:44;8.50;;;3.20;;
18748;SDS011;9503;53.560;10.246;2023-07-13T00:35:12;8.30;;;3.55;;
18748;SDS011;9503;53.560;10.246;2023-07-13T00:37:40;7.40;;;3.78;;
18748;SDS011;9503;53.560;10.246;2023-07-13T00:40:22;6.20;;;3.25;;
18748;SDS011;9503;53.560;10.246;2023-07-13T00:42:51;9.52;;;3.67;;
18748;SDS011;9503;53.560;10.246;2023-07-13T00:48:23;7.47;;;4.32;;
18748;SDS011;9503;53.560;10.246;2023-07-13T00:50:54;9.25;;;4.10;;
18748;SDS011;9503;53.560;10.246;2023-07-13T00:53:22;20.17;;;4.28;;
18748;SDS011;9503;53.560;10.246;2023-07-13T00:55:52;6.75;;;3.75;;
18748;SDS011;9503;53.560;10.246;2023-07-13T00:58:21;9.30;;;4.13;;
18748;SDS011;9503;53.560;10.246;2023-07-13T01:00:48;9.18;;;4.63;;
18748;SDS011;9503;53.560;10.246;2023-07-13T01:03:16;7.63;;;3.95;;
18748;SDS011;9503;53.560;10.246;2023-07-13T01:05:42;7.30;;;3.85;;
18748;SDS011;9503;53.560;10.246;2023-07-13T01:08:09;8.10;;;3.88;;
18748;SDS011;9503;53.560;10.246;2023-07-13T01:10:36;5.45;;;3.65;;
18748;SDS011;9503;53.560;10.246;2023-07-13T01:13:06;8.50;;;3.78;;
18748;SDS011;9503;53.560;10.246;2023-07-13T01:15:34;8.15;;;3.88;;
18748;SDS011;9503;53.560;10.246;2023-07-13T01:18:03;7.38;;;3.88;;
18748;SDS011;9503;53.560;10.246;2023-07-13T01:20:31;6.70;;;3.75;;
18748;SDS011;9503;53.560;10.246;2023-07-13T01:23:03;6.88;;;4.18;;
18748;SDS011;9503;53.560;10.246;2023-07-13T01:25:32;7.32;;;3.80;;
18748;SDS011;9503;53.560;10.246;2023-07-13T01:28:00;7.40;;;4.13;;
18748;SDS011;9503;53.560;10.246;2023-07-13T01:30:27;8.65;;;3.78;;
18748;SDS011;9503;53.560;10.246;2023-07-13T01:32:54;7.00;;;4.13;;
18748;SDS011;9503;53.560;10.246;2023-07-13T01:35:20;6.10;;;3.50;;
18748;SDS011;9503;53.560;10.246;2023-07-13T01:37:47;5.22;;;3.85;;
18748;SDS011;9503;53.560;10.246;2023-07-13T01:40:15;7.82;;;4.13;;
18748;SDS011;9503;53.560;10.246;2023-07-13T01:42:42;10.68;;;4.03;;
18748;SDS011;9503;53.560;10.246;2023-07-13T01:45:09;6.00;;;3.60;;
18748;SDS011;9503;53.560;10.246;2023-07-13T01:47:36;4.15;;;3.42;;
18748;SDS011;9503;53.560;10.246;2023-07-13T01:50:03;8.38;;;3.65;;
18748;SDS011;9503;53.560;10.246;2023-07-13T01:52:30;6.90;;;4.03;;
18748;SDS011;9503;53.560;10.246;2023-07-13T01:54:57;7.97;;;4.30;;
18748;SDS011;9503;53.560;10.246;2023-07-13T01:57:25;7.53;;;4.15;;
18748;SDS011;9503;53.560;10.246;2023-07-13T01:59:52;10.15;;;4.28;;
18748;SDS011;9503;53.560;10.246;2023-07-13T02:02:18;6.20;;;4.20;;
18748;SDS011;9503;53.560;10.246;2023-07-13T02:04:45;10.27;;;4.70;;
18748;SDS011;9503;53.560;10.246;2023-07-13T02:07:12;6.28;;;4.45;;
18748;SDS011;9503;53.560;10.246;2023-07-13T02:09:40;9.95;;;4.88;;
18748;SDS011;9503;53.560;10.246;2023-07-13T02:12:07;9.65;;;4.78;;
18748;SDS011;9503;53.560;10.246;2023-07-13T02:14:36;10.60;;;5.10;;
18748;SDS011;9503;53.560;10.246;2023-07-13T02:17:02;6.95;;;4.65;;
18748;SDS011;9503;53.560;10.246;2023-07-13T02:19:29;10.70;;;5.20;;
18748;SDS011;9503;53.560;10.246;2023-07-13T02:21:56;9.02;;;5.10;;
18748;SDS011;9503;53.560;10.246;2023-07-13T02:24:23;10.13;;;4.95;;
18748;SDS011;9503;53.560;10.246;2023-07-13T02:26:50;10.70;;;5.50;;
18748;SDS011;9503;53.560;10.246;2023-07-13T02:29:17;10.07;;;5.47;;
18748;SDS011;9503;53.560;10.246;2023-07-13T02:31:45;7.35;;;5.80;;
18748;SDS011;9503;53.560;10.246;2023-07-13T02:34:12;9.23;;;5.80;;
18748;SDS011;9503;53.560;10.246;2023-07-13T02:36:38;7.85;;;6.20;;
18748;SDS011;9503;53.560;10.246;2023-07-13T02:39:06;9.75;;;6.25;;
18748;SDS011;9503;53.560;10.246;2023-07-13T02:41:33;12.25;;;6.63;;
18748;SDS011;9503;53.560;10.246;2023-07-13T02:43:59;13.07;;;7.10;;
18748;SDS011;9503;53.560;10.246;2023-07-13T02:46:29;13.98;;;7.20;;
18748;SDS011;9503;53.560;10.246;2023-07-13T02:48:57;9.93;;;6.83;;
18748;SDS011;9503;53.560;10.246;2023-07-13T02:51:24;8.80;;;6.30;;
18748;SDS011;9503;53.560;10.246;2023-07-13T02:53:50;9.33;;;6.93;;
18748;SDS011;9503;53.560;10.246;2023-07-13T02:56:17;11.35;;;6.90;;
18748;SDS011;9503;53.560;10.246;2023-07-13T02:58:45;10.97;;;6.50;;
18748;SDS011;9503;53.560;10.246;2023-07-13T03:01:12;9.65;;;6.78;;
18748;SDS011;9503;53.560;10.246;2023-07-13T03:03:44;10.80;;;6.37;;
18748;SDS011;9503;53.560;10.246;2023-07-13T03:06:13;15.90;;;6.65;;
18748;SDS011;9503;53.560;10.246;2023-07-13T03:08:40;9.60;;;7.07;;
18748;SDS011;9503;53.560;10.246;2023-07-13T03:11:08;8.15;;;6.60;;
18748;SDS011;9503;53.560;10.246;2023-07-13T03:13:36;9.73;;;6.50;;
18748;SDS011;9503;53.560;10.246;2023-07-13T03:16:04;11.07;;;6.75;;
18748;SDS011;9503;53.560;10.246;2023-07-13T03:18:31;11.55;;;6.60;;
18748;SDS011;9503;53.560;10.246;2023-07-13T03:20:58;9.10;;;6.47;;
18748;SDS011;9503;53.560;10.246;2023-07-13T03:23:26;10.57;;;6.75;;
18748;SDS011;9503;53.560;10.246;2023-07-13T03:26:00;12.13;;;7.32;;
18748;SDS011;9503;53.560;10.246;2023-07-13T03:28:28;10.10;;;6.47;;
18748;SDS011;9503;53.560;10.246;2023-07-13T03:30:59;9.97;;;6.87;;
18748;SDS011;9503;53.560;10.246;2023-07-13T03:33:26;10.30;;;7.30;;
18748;SDS011;9503;53.560;10.246;2023-07-13T03:35:53;10.30;;;7.28;;
18748;SDS011;9503;53.560;10.246;2023-07-13T03:38:19;12.75;;;6.68;;
18748;SDS011;9503;53.560;10.246;2023-07-13T03:40:47;12.27;;;6.28;;
18748;SDS011;9503;53.560;10.246;2023-07-13T03:43:14;10.50;;;6.38;;
18748;SDS011;9503;53.560;10.246;2023-07-13T03:45:41;12.25;;;7.38;;
18748;SDS011;9503;53.560;10.246;2023-07-13T03:48:08;14.57;;;7.28;;
18748;SDS011;9503;53.560;10.246;2023-07-13T03:50:35;10.63;;;7.50;;
18748;SDS011;9503;53.560;10.246;2023-07-13T03:53:01;9.05;;;7.10;;
18748;SDS011;9503;53.560;10.246;2023-07-13T03:55:28;8.95;;;6.63;;
18748;SDS011;9503;53.560;10.246;2023-07-13T03:57:59;9.13;;;7.07;;
18748;SDS011;9503;53.560;10.246;2023-07-13T04:00:27;8.77;;;6.43;;
18748;SDS011;9503;53.560;10.246;2023-07-13T04:02:54;9.57;;;6.63;;
18748;SDS011;9503;53.560;10.246;2023-07-13T04:05:20;10.38;;;6.60;;
18748;SDS011;9503;53.560;10.246;2023-07-13T04:07:47;11.27;;;6.30;;
18748;SDS011;9503;53.560;10.246;2023-07-13T04:10:13;11.23;;;6.47;;
18748;SDS011;9503;53.560;10.246;2023-07-13T04:12:40;10.05;;;6.45;;
18748;SDS011;9503;53.560;10.246;2023-07-13T04:15:09;9.77;;;6.13;;
18748;SDS011;9503;53.560;10.246;2023-07-13T04:17:35;12.00;;;5.85;;
18748;SDS011;9503;53.560;10.246;2023-07-13T04:20:02;8.20;;;5.88;;
18748;SDS011;9503;53.560;10.246;2023-07-13T04:22:30;7.63;;;5.60;;
18748;SDS011;9503;53.560;10.246;2023-07-13T04:24:57;8.77;;;5.68;;
18748;SDS011;9503;53.560;10.246;2023-07-13T04:27:23;8.45;;;5.70;;
18748;SDS011;9503;53.560;10.246;2023-07-13T04:29:50;9.45;;;5.57;;
18748;SDS011;9503;53.560;10.246;2023-07-13T04:32:18;8.35;;;5.20;;
18748;SDS011;9503;53.560;10.246;2023-07-13T04:34:45;9.32;;;4.35;;
18748;SDS011;9503;53.560;10.246;2023-07-13T04:37:11;8.55;;;4.68;;
18748;SDS011;9503;53.560;10.246;2023-07-13T04:39:38;6.28;;;4.50;;
18748;SDS011;9503;53.560;10.246;2023-07-13T04:42:05;8.45;;;4.35;;
18748;SDS011;9503;53.560;10.246;2023-07-13T04:44:32;5.18;;;4.00;;
18748;SDS011;9503;53.560;10.246;2023-07-13T04:46:59;5.75;;;3.85;;
18748;SDS011;9503;53.560;10.246;2023-07-13T04:49:27;6.20;;;4.13;;
18748;SDS011;9503;53.560;10.246;2023-07-13T04:51:53;5.05;;;3.85;;
18748;SDS011;9503;53.560;10.246;2023-07-13T04:54:20;7.88;;;4.38;;
18748;SDS011;9503;53.560;10.246;2023-07-13T04:56:47;6.32;;;4.18;;
18748;SDS011;9503;53.560;10.246;2023-07-13T04:59:14;7.75;;;4.70;;
18748;SDS011;9503;53.560;10.246;2023-07-13T05:01:41;11.40;;;4.07;;
18748;SDS011;9503;53.560;10.246;2023-07-13T05:04:07;11.85;;;4.35;;
18748;SDS011;9503;53.560;10.246;2023-07-13T05:06:35;8.48;;;4.35;;
18748;SDS011;9503;53.560;10.246;2023-07-13T05:09:02;6.47;;;4.35;;
18748;SDS011;9503;53.560;10.246;2023-07-13T05:11:29;7.97;;;4.40;;
18748;SDS011;9503;53.560;10.246;2023-07-13T05:13:55;8.60;;;4.80;;
18748;SDS011;9503;53.560;10.246;2023-07-13T05:16:22;8.13;;;3.70;;
18748;SDS011;9503;53.560;10.246;2023-07-13T05:18:49;7.78;;;4.25;;
18748;SDS011;9503;53.560;10.246;2023-07-13T05:21:15;7.35;;;3.83;;
18748;SDS011;9503;53.560;10.246;2023-07-13T05:23:43;6.72;;;4.25;;
18748;SDS011;9503;53.560;10.246;2023-07-13T05:26:10;9.05;;;3.85;;
18748;SDS011;9503;53.560;10.246;2023-07-13T05:28:37;4.80;;;3.38;;
18748;SDS011;9503;53.560;10.246;2023-07-13T05:31:04;6.13;;;3.55;;
18748;SDS011;9503;53.560;10.246;2023-07-13T05:33:32;6.43;;;3.40;;
18748;SDS011;9503;53.560;10.246;2023-07-13T05:36:00;7.82;;;3.30;;
18748;SDS011;9503;53.560;10.246;2023-07-13T05:38:26;5.97;;;3.30;;
18748;SDS011;9503;53.560;10.246;2023-07-13T05:40:55;5.90;;;3.70;;
18748;SDS011;9503;53.560;10.246;2023-07-13T05:43:22;5.18;;;3.53;;
18748;SDS011;9503;53.560;10.246;2023-07-13T05:45:51;7.43;;;3.63;;
18748;SDS011;9503;53.560;10.246;2023-07-13T05:48:18;9.43;;;3.65;;
18748;SDS011;9503;53.560;10.246;2023-07-13T05:50:45;9.95;;;4.03;;
18748;SDS011;9503;53.560;10.246;2023-07-13T05:53:12;8.88;;;3.70;;
18748;SDS011;9503;53.560;10.246;2023-07-13T05:55:40;7.55;;;3.65;;
18748;SDS011;9503;53.560;10.246;2023-07-13T05:58:09;8.63;;;3.85;;
18748;SDS011;9503;53.560;10.246;2023-07-13T06:00:38;8.10;;;3.88;;
18748;SDS011;9503;53.560;10.246;2023-07-13T06:03:05;8.30;;;3.85;;
18748;SDS011;9503;53.560;10.246;2023-07-13T06:05:32;8.40;;;3.53;;
18748;SDS011;9503;53.560;10.246;2023-07-13T06:07:59;7.93;;;3.75;;
18748;SDS011;9503;53.560;10.246;2023-07-13T06:10:26;7.95;;;3.85;;
18748;SDS011;9503;53.560;10.246;2023-07-13T06:12:53;10.00;;;3.95;;
18748;SDS011;9503;53.560;10.246;2023-07-13T06:15:21;12.85;;;3.85;;
18748;SDS011;9503;53.560;10.246;2023-07-13T06:17:47;15.00;;;4.10;;
18748;SDS011;9503;53.560;10.246;2023-07-13T06:20:14;8.95;;;3.60;;
18748;SDS011;9503;53.560;10.246;2023-07-13T06:22:41;12.05;;;4.15;;
18748;SDS011;9503;53.560;10.246;2023-07-13T06:25:08;9.25;;;3.65;;
18748;SDS011;9503;53.560;10.246;2023-07-13T06:27:35;9.00;;;3.50;;
18748;SDS011;9503;53.560;10.246;2023-07-13T06:30:01;9.25;;;4.03;;
18748;SDS011;9503;53.560;10.246;2023-07-13T06:32:30;17.70;;;4.07;;
18748;SDS011;9503;53.560;10.246;2023-07-13T06:34:56;12.00;;;3.60;;
18748;SDS011;9503;53.560;10.246;2023-07-13T06:37:23;13.63;;;3.45;;
18748;SDS011;9503;53.560;10.246;2023-07-13T06:39:50;11.05;;;3.03;;
18748;SDS011;9503;53.560;10.246;2023-07-13T06:42:16;10.23;;;3.60;;
18748;SDS011;9503;53.560;10.246;2023-07-13T06:44:43;16.70;;;3.83;;
18748;SDS011;9503;53.560;10.246;2023-07-13T06:47:10;12.38;;;3.45;;
18748;SDS011;9503;53.560;10.246;2023-07-13T06:49:38;6.40;;;2.95;;
18748;SDS011;9503;53.560;10.246;2023-07-13T06:52:05;10.77;;;3.10;;
18748;SDS011;9503;53.560;10.246;2023-07-13T06:54:32;10.70;;;3.55;;
18748;SDS011;9503;53.560;10.246;2023-07-13T06:57:00;13.85;;;3.38;;
18748;SDS011;9503;53.560;10.246;2023-07-13T06:59:26;6.50;;;3.63;;
18748;SDS011;9503;53.560;10.246;2023-07-13T07:01:53;10.45;;;3.25;;
18748;SDS011;9503;53.560;10.246;2023-07-13T07:04:20;8.05;;;2.75;;
18748;SDS011;9503;53.560;10.246;2023-07-13T07:06:48;15.48;;;3.88;;
18748;SDS011;9503;53.560;10.246;2023-07-13T07:09:14;12.90;;;3.30;;
18748;SDS011;9503;53.560;10.246;2023-07-13T07:11:42;12.45;;;3.22;;
18748;SDS011;9503;53.560;10.246;2023-07-13T07:14:09;12.48;;;3.63;;
18748;SDS011;9503;53.560;10.246;2023-07-13T07:16:35;8.45;;;3.83;;
18748;SDS011;9503;53.560;10.246;2023-07-13T07:19:02;11.73;;;3.53;;
18748;SDS011;9503;53.560;10.246;2023-07-13T07:21:28;14.48;;;3.50;;
18748;SDS011;9503;53.560;10.246;2023-07-13T07:23:57;12.68;;;3.75;;
18748;SDS011;9503;53.560;10.246;2023-07-13T07:26:24;11.85;;;3.28;;
18748;SDS011;9503;53.560;10.246;2023-07-13T07:28:51;9.40;;;3.35;;
18748;SDS011;9503;53.560;10.246;2023-07-13T07:31:18;9.70;;;3.20;;
18748;SDS011;9503;53.560;10.246;2023-07-13T07:33:45;10.32;;;3.30;;
18748;SDS011;9503;53.560;10.246;2023-07-13T07:36:11;13.52;;;3.72;;
18748;SDS011;9503;53.560;10.246;2023-07-13T07:38:38;11.40;;;3.40;;
18748;SDS011;9503;53.560;10.246;2023-07-13T07:41:06;11.18;;;3.35;;
18748;SDS011;9503;53.560;10.246;2023-07-13T07:43:33;7.68;;;3.17;;
18748;SDS011;9503;53.560;10.246;2023-07-13T07:45:59;11.63;;;3.28;;
18748;SDS011;9503;53.560;10.246;2023-07-13T07:48:26;13.80;;;3.85;;
18748;SDS011;9503;53.560;10.246;2023-07-13T07:50:53;9.30;;;3.70;;
18748;SDS011;9503;53.560;10.246;2023-07-13T07:53:19;10.73;;;3.40;;
18748;SDS011;9503;53.560;10.246;2023-07-13T07:55:46;11.57;;;3.67;;
18748;SDS011;9503;53.560;10.246;2023-07-13T07:58:14;10.45;;;3.45;;
18748;SDS011;9503;53.560;10.246;2023-07-13T08:00:41;13.82;;;3.03;;
18748;SDS011;9503;53.560;10.246;2023-07-13T08:03:08;11.00;;;3.75;;
18748;SDS011;9503;53.560;10.246;2023-07-13T08:05:35;10.07;;;3.50;;
18748;SDS011;9503;53.560;10.246;2023-07-13T08:08:02;8.68;;;2.80;;
18748;SDS011;9503;53.560;10.246;2023-07-13T08:10:29;6.97;;;2.92;;
18748;SDS011;9503;53.560;10.246;2023-07-13T08:12:56;13.48;;;3.55;;
18748;SDS011;9503;53.560;10.246;2023-07-13T08:15:24;8.13;;;3.53;;
18748;SDS011;9503;53.560;10.246;2023-07-13T08:17:50;10.15;;;3.40;;
18748;SDS011;9503;53.560;10.246;2023-07-13T08:20:17;5.38;;;2.80;;
18748;SDS011;9503;53.560;10.246;2023-07-13T08:22:44;12.57;;;3.28;;
18748;SDS011;9503;53.560;10.246;2023-07-13T08:25:10;9.38;;;3.22;;
18748;SDS011;9503;53.560;10.246;2023-07-13T08:27:37;11.02;;;3.22;;
18748;SDS011;9503;53.560;10.246;2023-07-13T08:30:04;9.43;;;3.20;;
18748;SDS011;9503;53.560;10.246;2023-07-13T08:32:35;12.07;;;3.13;;
18748;SDS011;9503;53.560;10.246;2023-07-13T08:35:03;9.32;;;3.63;;
18748;SDS011;9503;53.560;10.246;2023-07-13T08:37:30;8.75;;;2.95;;
18748;SDS011;9503;53.560;10.246;2023-07-13T08:39:57;9.77;;;3.13;;
18748;SDS011;9503;53.560;10.246;2023-07-13T08:42:27;9.10;;;3.40;;
18748;SDS011;9503;53.560;10.246;2023-07-13T08:45:04;9.20;;;3.28;;
18748;SDS011;9503;53.560;10.246;2023-07-13T08:47:40;11.35;;;2.75;;
18748;SDS011;9503;53.560;10.246;2023-07-13T08:50:12;14.35;;;3.53;;
18748;SDS011;9503;53.560;10.246;2023-07-13T08:52:41;11.70;;;3.53;;
18748;SDS011;9503;53.560;10.246;2023-07-13T08:55:12;8.73;;;3.65;;
18748;SDS011;9503;53.560;10.246;2023-07-13T08:57:42;9.07;;;2.60;;
18748;SDS011;9503;53.560;10.246;2023-07-13T09:00:13;9.18;;;2.90;;
18748;SDS011;9503;53.560;10.246;2023-07-13T09:02:44;8.57;;;3.17;;
18748;SDS011;9503;53.560;10.246;2023-07-13T09:05:14;7.93;;;2.72;;
18748;SDS011;9503;53.560;10.246;2023-07-13T09:07:48;10.00;;;2.72;;
18748;SDS011;9503;53.560;10.246;2023-07-13T09:10:26;7.45;;;2.90;;
18748;SDS011;9503;53.560;10.246;2023-07-13T09:12:59;5.97;;;2.63;;
18748;SDS011;9503;53.560;10.246;2023-07-13T09:15:37;7.70;;;2.55;;
18748;SDS011;9503;53.560;10.246;2023-07-13T09:18:10;4.10;;;2.22;;
18748;SDS011;9503;53.560;10.246;2023-07-13T09:20:42;7.70;;;2.47;;
18748;SDS011;9503;53.560;10.246;2023-07-13T09:23:13;6.95;;;2.90;;
18748;SDS011;9503;53.560;10.246;2023-07-13T09:25:43;5.13;;;2.65;;
18748;SDS011;9503;53.560;10.246;2023-07-13T09:28:12;8.27;;;3.00;;
18748;SDS011;9503;53.560;10.246;2023-07-13T09:30:45;9.68;;;2.95;;
18748;SDS011;9503;53.560;10.246;2023-07-13T09:33:20;5.10;;;2.63;;
18748;SDS011;9503;53.560;10.246;2023-07-13T09:35:47;6.45;;;2.20;;
18748;SDS011;9503;53.560;10.246;2023-07-13T09:38:15;8.55;;;2.65;;
18748;SDS011;9503;53.560;10.246;2023-07-13T09:40:46;5.03;;;2.22;;
18748;SDS011;9503;53.560;10.246;2023-07-13T09:43:24;6.80;;;2.75;;
18748;SDS011;9503;53.560;10.246;2023-07-13T09:45:53;8.52;;;3.30;;
18748;SDS011;9503;53.560;10.246;2023-07-13T09:48:23;8.60;;;3.38;;
18748;SDS011;9503;53.560;10.246;2023-07-13T09:50:54;7.97;;;3.08;;
18748;SDS011;9503;53.560;10.246;2023-07-13T09:53:22;8.30;;;3.42;;
18748;SDS011;9503;53.560;10.246;2023-07-13T09:55:49;8.95;;;3.30;;
18748;SDS011;9503;53.560;10.246;2023-07-13T09:58:16;8.32;;;2.80;;
18748;SDS011;9503;53.560;10.246;2023-07-13T10:00:54;8.10;;;2.83;;
18748;SDS011;9503;53.560;10.246;2023-07-13T10:03:24;8.80;;;3.17;;
18748;SDS011;9503;53.560;10.246;2023-07-13T10:05:53;11.65;;;2.67;;
18748;SDS011;9503;53.560;10.246;2023-07-13T10:08:21;6.88;;;2.90;;
18748;SDS011;9503;53.560;10.246;2023-07-13T10:10:52;6.40;;;2.70;;
18748;SDS011;9503;53.560;10.246;2023-07-13T10:13:31;11.38;;;3.42;;
18748;SDS011;9503;53.560;10.246;2023-07-13T10:16:02;8.95;;;3.47;;
18748;SDS011;9503;53.560;10.246;2023-07-13T10:18:33;8.57;;;2.55;;
18748;SDS011;9503;53.560;10.246;2023-07-13T10:21:10;6.15;;;2.60;;
18748;SDS011;9503;53.560;10.246;2023-07-13T10:23:39;6.25;;;2.40;;
18748;SDS011;9503;53.560;10.246;2023-07-13T10:26:08;9.57;;;2.85;;
18748;SDS011;9503;53.560;10.246;2023-07-13T10:28:39;5.80;;;2.47;;
18748;SDS011;9503;53.560;10.246;2023-07-13T10:31:10;5.95;;;2.50;;
18748;SDS011;9503;53.560;10.246;2023-07-13T10:33:40;7.00;;;2.90;;
18748;SDS011;9503;53.560;10.246;2023-07-13T10:36:12;5.97;;;2.20;;
18748;SDS011;9503;53.560;10.246;2023-07-13T10:38:43;5.32;;;2.40;;
18748;SDS011;9503;53.560;10.246;2023-07-13T10:41:11;8.43;;;2.50;;
18748;SDS011;9503;53.560;10.246;2023-07-13T10:43:43;7.95;;;2.80;;
18748;SDS011;9503;53.560;10.246;2023-07-13T10:46:15;5.20;;;2.60;;
18748;SDS011;9503;53.560;10.246;2023-07-13T10:48:46;5.97;;;2.65;;
18748;SDS011;9503;53.560;10.246;2023-07-13T10:51:16;6.05;;;2.50;;
18748;SDS011;9503;53.560;10.246;2023-07-13T10:53:46;5.05;;;2.55;;
18748;SDS011;9503;53.560;10.246;2023-07-13T10:56:19;7.05;;;2.40;;
18748;SDS011;9503;53.560;10.246;2023-07-13T10:59:01;5.32;;;2.40;;
18748;SDS011;9503;53.560;10.246;2023-07-13T11:01:39;4.05;;;2.28;;
18748;SDS011;9503;53.560;10.246;2023-07-13T11:04:10;10.98;;;2.47;;
18748;SDS011;9503;53.560;10.246;2023-07-13T11:06:40;7.18;;;2.58;;
18748;SDS011;9503;53.560;10.246;2023-07-13T11:09:24;6.60;;;2.53;;
18748;SDS011;9503;53.560;10.246;2023-07-13T11:11:58;3.67;;;2.05;;
18748;SDS011;9503;53.560;10.246;2023-07-13T11:14:28;4.00;;;2.08;;
18748;SDS011;9503;53.560;10.246;2023-07-13T11:16:57;4.35;;;2.28;;
18748;SDS011;9503;53.560;10.246;2023-07-13T11:19:37;6.75;;;2.25;;
18748;SDS011;9503;53.560;10.246;2023-07-13T11:22:10;9.73;;;2.42;;
18748;SDS011;9503;53.560;10.246;2023-07-13T11:27:35;5.18;;;2.15;;
18748;SDS011;9503;53.560;10.246;2023-07-13T11:30:24;5.25;;;2.60;;
18748;SDS011;9503;53.560;10.246;2023-07-13T11:33:04;5.25;;;2.20;;
18748;SDS011;9503;53.560;10.246;2023-07-13T11:35:40;6.07;;;2.22;;
18748;SDS011;9503;53.560;10.246;2023-07-13T11:38:12;4.43;;;2.25;;
18748;SDS011;9503;53.560;10.246;2023-07-13T11:40:43;5.78;;;2.40;;
18748;SDS011;9503;53.560;10.246;2023-07-13T11:43:12;6.60;;;2.28;;
18748;SDS011;9503;53.560;10.246;2023-07-13T11:45:41;4.70;;;2.15;;
18748;SDS011;9503;53.560;10.246;2023-07-13T11:50:55;3.45;;;2.05;;
18748;SDS011;9503;53.560;10.246;2023-07-13T11:53:26;2.85;;;2.00;;
18748;SDS011;9503;53.560;10.246;2023-07-13T11:55:55;4.20;;;2.00;;
18748;SDS011;9503;53.560;10.246;2023-07-13T11:58:23;3.80;;;1.88;;
18748;SDS011;9503;53.560;10.246;2023-07-13T12:00:53;3.08;;;2.03;;
18748;SDS011;9503;53.560;10.246;2023-07-13T12:03:25;7.03;;;2.35;;
18748;SDS011;9503;53.560;10.246;2023-07-13T12:05:58;4.82;;;2.33;;
18748;SDS011;9503;53.560;10.246;2023-07-13T12:08:27;3.40;;;1.90;;
18748;SDS011;9503;53.560;10.246;2023-07-13T12:10:58;3.92;;;2.30;;
18748;SDS011;9503;53.560;10.246;2023-07-13T12:13:35;6.53;;;2.35;;
18748;SDS011;9503;53.560;10.246;2023-07-13T12:16:07;5.57;;;2.33;;
18748;SDS011;9503;53.560;10.246;2023-07-13T12:18:38;4.85;;;1.90;;
18748;SDS011;9503;53.560;10.246;2023-07-13T12:21:12;5.25;;;2.05;;
18748;SDS011;9503;53.560;10.246;2023-07-13T12:23:43;4.13;;;1.83;;
18748;SDS011;9503;53.560;10.246;2023-07-13T12:26:10;3.00;;;1.75;;
18748;SDS011;9503;53.560;10.246;2023-07-13T12:28:44;3.88;;;1.92;;
18748;SDS011;9503;53.560;10.246;2023-07-13T12:34:00;4.25;;;2.03;;
18748;SDS011;9503;53.560;10.246;2023-07-13T12:36:33;3.97;;;1.85;;
18748;SDS011;9503;53.560;10.246;2023-07-13T12:39:04;15.32;;;3.17;;
18748;SDS011;9503;53.560;10.246;2023-07-13T12:41:40;10.13;;;2.90;;
18748;SDS011;9503;53.560;10.246;2023-07-13T12:44:11;6.97;;;2.55;;
18748;SDS011;9503;53.560;10.246;2023-07-13T12:46:39;6.47;;;2.78;;
18748;SDS011;9503;53.560;10.246;2023-07-13T12:49:07;10.38;;;3.53;;
18748;SDS011;9503;53.560;10.246;2023-07-13T12:51:35;7.60;;;3.22;;
18748;SDS011;9503;53.560;10.246;2023-07-13T12:54:10;7.88;;;3.55;;
18748;SDS011;9503;53.560;10.246;2023-07-13T12:56:41;6.60;;;3.40;;
18748;SDS011;9503;53.560;10.246;2023-07-13T12:59:08;8.75;;;3.78;;
18748;SDS011;9503;53.560;10.246;2023-07-13T13:01:44;6.90;;;4.32;;
18748;SDS011;9503;53.560;10.246;2023-07-13T13:04:12;11.40;;;4.05;;
18748;SDS011;9503;53.560;10.246;2023-07-13T13:06:40;7.82;;;4.07;;
18748;SDS011;9503;53.560;10.246;2023-07-13T13:09:09;9.52;;;4.20;;
18748;SDS011;9503;53.560;10.246;2023-07-13T13:11:38;7.80;;;3.28;;
18748;SDS011;9503;53.560;10.246;2023-07-13T13:14:05;9.48;;;3.80;;
18748;SDS011;9503;53.560;10.246;2023-07-13T13:16:32;7.35;;;3.22;;
18748;SDS011;9503;53.560;10.246;2023-07-13T13:19:02;8.40;;;3.80;;
18748;SDS011;9503;53.560;10.246;2023-07-13T13:21:38;7.35;;;3.80;;
18748;SDS011;9503;53.560;10.246;2023-07-13T13:24:08;5.30;;;3.55;;
18748;SDS011;9503;53.560;10.246;2023-07-13T13:26:37;5.82;;;3.38;;
18748;SDS011;9503;53.560;10.246;2023-07-13T13:29:09;6.07;;;3.45;;
18748;SDS011;9503;53.560;10.246;2023-07-13T13:31:41;8.50;;;3.78;;
18748;SDS011;9503;53.560;10.246;2023-07-13T13:34:09;9.75;;;3.30;;
18748;SDS011;9503;53.560;10.246;2023-07-13T13:36:37;5.63;;;3.30;;
18748;SDS011;9503;53.560;10.246;2023-07-13T13:39:05;7.93;;;3.65;;
18748;SDS011;9503;53.560;10.246;2023-07-13T13:41:45;8.27;;;3.20;;
18748;SDS011;9503;53.560;10.246;2023-07-13T13:44:13;6.97;;;3.38;;
18748;SDS011;9503;53.560;10.246;2023-07-13T13:46:40;7.70;;;3.50;;
18748;SDS011;9503;53.560;10.246;2023-07-13T13:49:10;6.55;;;3.15;;
18748;SDS011;9503;53.560;10.246;2023-07-13T13:51:41;6.80;;;3.40;;
18748;SDS011;9503;53.560;10.246;2023-07-13T13:54:09;4.75;;;3.30;;
18748;SDS011;9503;53.560;10.246;2023-07-13T13:56:40;6.20;;;2.67;;
18748;SDS011;9503;53.560;10.246;2023-07-13T13:59:07;5.18;;;3.22;;
18748;SDS011;9503;53.560;10.246;2023-07-13T14:01:35;5.38;;;2.45;;
18748;SDS011;9503;53.560;10.246;2023-07-13T14:04:02;5.70;;;2.80;;
18748;SDS011;9503;53.560;10.246;2023-07-13T14:06:30;6.90;;;2.80;;
18748;SDS011;9503;53.560;10.246;2023-07-13T14:08:57;3.83;;;2.60;;
18748;SDS011;9503;53.560;10.246;2023-07-13T14:11:23;4.03;;;2.42;;
18748;SDS011;9503;53.560;10.246;2023-07-13T14:13:53;7.55;;;2.75;;
18748;SDS011;9503;53.560;10.246;2023-07-13T14:16:23;4.45;;;2.40;;
18748;SDS011;9503;53.560;10.246;2023-07-13T14:18:54;4.53;;;2.53;;
18748;SDS011;9503;53.560;10.246;2023-07-13T14:21:24;4.45;;;2.33;;
18748;SDS011;9503;53.560;10.246;2023-07-13T14:23:51;2.90;;;2.38;;
18748;SDS011;9503;53.560;10.246;2023-07-13T14:26:19;6.97;;;2.50;;
18748;SDS011;9503;53.560;10.246;2023-07-13T14:28:48;2.90;;;2.38;;
18748;SDS011;9503;53.560;10.246;2023-07-13T14:31:17;2.97;;;2.05;;
18748;SDS011;9503;53.560;10.246;2023-07-13T14:33:45;4.35;;;2.58;;
18748;SDS011;9503;53.560;10.246;2023-07-13T14:36:16;2.78;;;2.10;;
18748;SDS011;9503;53.560;10.246;2023-07-13T14:38:49;4.95;;;2.40;;
18748;SDS011;9503;53.560;10.246;2023-07-13T14:41:16;5.70;;;2.30;;
18748;SDS011;9503;53.560;10.246;2023-07-13T14:43:42;5.20;;;2.20;;
18748;SDS011;9503;53.560;10.246;2023-07-13T14:46:11;3.22;;;2.20;;
18748;SDS011;9503;53.560;10.246;2023-07-13T14:48:49;4.90;;;2.05;;
18748;SDS011;9503;53.560;10.246;2023-07-13T14:51:16;4.13;;;2.38;;
18748;SDS011;9503;53.560;10.246;2023-07-13T14:53:43;4.43;;;2.50;;
18748;SDS011;9503;53.560;10.246;2023-07-13T14:56:10;5.63;;;2.90;;
18748;SDS011;9503;53.560;10.246;2023-07-13T14:58:37;4.22;;;2.50;;
18748;SDS011;9503;53.560;10.246;2023-07-13T15:01:07;3.47;;;2.35;;
18748;SDS011;9503;53.560;10.246;2023-07-13T15:03:39;5.00;;;2.10;;
18748;SDS011;9503;53.560;10.246;2023-07-13T15:06:09;3.63;;;2.20;;